KSFF/SFF METAR and TAF weather

Enter ICAO airport designator
Station Type Date Time Source
KSFF METAR 2020/09/22 03:53 UTC NOAA

KSFF 220353Z AUTO 00000KT 10SM CLR 18/04 A2993 RMK AO2 SLP128 T01830044


Station Type Date Time Source
KSFF Decoded METAR 2020/09/22 03:53 UTC NOAA

FELTS FIELD, WA, United States (KSFF) 47-41N 117-19W 609M
Sep 21, 2020 - 11:53 PM EDT / 2020.09.22 0353 UTC
Wind: Calm:0
Visibility: 10 mile(s):0
Sky conditions: clear
Temperature: 64.9 F (18.3 C)
Dew Point: 39.9 F (4.4 C)
Relative Humidity: 39%
Pressure (altimeter): 29.93 in. Hg (1013 hPa)
ob: KSFF 220353Z AUTO 00000KT 10SM CLR 18/04 A2993 RMK AO2 SLP128 T01830044
cycle: 4

Station Type Date Time Source
KSFF TAF 2020/09/21 18:36 UTC NOAA

TAF KSFF 211734Z 2118/2218 09004KT P6SM SCT200 BKN250
FM212100 25005KT P6SM SCT150 BKN250
FM220300 00000KT P6SM FEW100 SCT150
FM221100 15005KT P6SM SCT100 BKN200

Example: see airport list